createdAt,value
2016-02-27T00:00:45.109Z,69.97
2016-02-27T00:01:45.095Z,70.06
2016-02-27T00:02:45.098Z,69.78
2016-02-27T00:03:45.133Z,70.06
2016-02-27T00:04:45.088Z,69.97
2016-02-27T00:05:45.074Z,70.16
2016-02-27T00:06:45.062Z,70.44
2016-02-27T00:07:45.065Z,70.16
2016-02-27T00:08:45.052Z,70.44
2016-02-27T00:09:45.038Z,70.73
2016-02-27T00:10:45.041Z,71.11
2016-02-27T00:11:45.075Z,71.3
2016-02-27T00:12:45.031Z,71.2
2016-02-27T00:13:45.049Z,71.83
2016-02-27T00:14:45.006Z,71.83
2016-02-27T00:15:44.992Z,71.83
2016-02-27T00:16:44.995Z,71.48
2016-02-27T00:17:44.982Z,71.77
2016-02-27T00:18:45.032Z,71.07
2016-02-27T00:19:44.987Z,70.97
2016-02-27T00:20:44.975Z,70.97
2016-02-27T00:21:44.962Z,71.16
2016-02-27T00:22:44.964Z,71.2
2016-02-27T00:23:44.951Z,71.92
2016-02-27T00:24:44.938Z,71.73
2016-02-27T00:25:44.941Z,72.2
2016-02-27T00:26:44.959Z,71.73
2016-02-27T00:27:44.915Z,71.45
2016-02-27T00:28:44.918Z,71.77
2016-02-27T00:29:44.905Z,71.26
2016-02-27T00:30:44.907Z,71.45
2016-02-27T00:31:44.895Z,71.73
2016-02-27T00:32:44.897Z,71.73
2016-02-27T00:33:44.885Z,71.16
2016-02-27T00:34:44.888Z,71.07
2016-02-27T00:35:44.859Z,71.07
2016-02-27T00:36:44.877Z,71.16
2016-02-27T00:37:44.849Z,71.83
2016-02-27T00:38:44.866Z,71.83
2016-02-27T00:39:44.854Z,71.64
2016-02-27T00:40:44.857Z,71.92
2016-02-27T00:41:44.828Z,72.11
2016-02-27T00:42:44.815Z,72.11
2016-02-27T00:43:44.818Z,72.3
2016-02-27T00:44:44.804Z,72.67
2016-02-27T00:45:44.824Z,72.77
2016-02-27T00:46:44.826Z,73.05
2016-02-27T00:47:44.797Z,72.96
2016-02-27T00:48:44.769Z,73.05
2016-02-27T00:49:44.787Z,72.96
2016-02-27T00:50:44.758Z,72.49
2016-02-27T00:51:44.776Z,72.3
2016-02-27T00:52:44.748Z,73.24
2016-02-27T00:53:44.767Z,72.96
2016-02-27T00:54:44.753Z,72.77
2016-02-27T00:55:44.741Z,73.05
2016-02-27T00:56:44.728Z,73.05
2016-02-27T00:57:44.714Z,73.52
2016-02-27T00:58:44.717Z,73.33
2016-02-27T00:59:44.705Z,73.33
2016-02-27T01:00:44.707Z,73.33
2016-02-27T01:01:44.678Z,73.52
2016-02-27T01:02:44.681Z,73.52
2016-02-27T01:03:44.669Z,73.52
2016-02-27T01:04:44.671Z,73.24
2016-02-27T01:05:44.658Z,73.52
2016-02-27T01:06:44.661Z,73.9
2016-02-27T01:07:44.649Z,73.9
2016-02-27T01:08:44.651Z,74.38
2016-02-27T01:09:44.654Z,73.81
2016-02-27T01:10:44.641Z,73.9
2016-02-27T01:11:44.612Z,73.71
2016-02-27T01:12:44.615Z,73.81
2016-02-27T01:13:44.617Z,73.71
2016-02-27T01:14:44.604Z,74.09
2016-02-27T01:15:44.591Z,73.81
2016-02-27T01:16:44.594Z,73.43
2016-02-27T01:17:44.581Z,73.52
2016-02-27T01:18:44.583Z,73.71
2016-02-27T01:19:44.556Z,73.81
2016-02-27T01:20:44.559Z,73.9
2016-02-27T01:21:44.545Z,73.71
2016-02-27T01:22:44.548Z,73.24
2016-02-27T01:23:44.535Z,73.62
2016-02-27T01:24:44.537Z,73.24
2016-02-27T01:25:44.525Z,73.52
2016-02-27T01:26:44.511Z,73.24
2016-02-27T01:27:44.514Z,73.05
2016-02-27T01:28:44.516Z,73.52
2016-02-27T01:29:44.488Z,73.81
2016-02-27T01:30:44.492Z,73.52
2016-02-27T01:31:44.478Z,73.33
2016-02-27T01:32:44.480Z,73.52
2016-02-27T01:33:44.469Z,73.33
2016-02-27T01:34:44.471Z,73.05
2016-02-27T01:35:44.458Z,73.33
2016-02-27T01:36:44.444Z,73.24
2016-02-27T01:37:44.432Z,72.77
2016-02-27T01:38:44.435Z,72.86
2016-02-27T01:39:44.421Z,72.67
2016-02-27T01:40:44.424Z,72.77
2016-02-27T01:41:44.411Z,72.67
2016-02-27T01:42:44.413Z,72.86
2016-02-27T01:43:44.416Z,72.49
2016-02-27T01:44:44.388Z,72.49
2016-02-27T01:45:44.376Z,72.86
2016-02-27T01:46:44.393Z,72.86
2016-02-27T01:47:44.365Z,72.39
2016-02-27T01:48:44.384Z,72.58
2016-02-27T01:49:44.354Z,72.39
2016-02-27T01:50:44.342Z,72.96
2016-02-27T01:51:44.344Z,72.77
2016-02-27T01:52:44.347Z,72.96
2016-02-27T01:53:44.178Z,72.49
2016-02-27T01:54:44.320Z,72.39
2016-02-27T01:55:44.309Z,72.49
2016-02-27T01:56:44.311Z,73.05
2016-02-27T01:57:44.298Z,72.77
2016-02-27T01:58:44.286Z,72.86
2016-02-27T01:59:44.288Z,73.14
2016-02-27T02:00:44.275Z,72.49
2016-02-27T02:01:44.261Z,72.86
2016-02-27T02:02:44.296Z,73.52
2016-02-27T02:03:44.252Z,73.81
2016-02-27T02:04:44.255Z,74.09
2016-02-27T02:05:44.242Z,74.47
2016-02-27T02:06:44.228Z,74.28
2016-02-27T02:07:44.216Z,74.85
2016-02-27T02:08:44.218Z,74.38
2016-02-27T02:09:44.205Z,74.76
2016-02-27T02:10:44.208Z,75.04
2016-02-27T02:11:44.195Z,75.04
2016-02-27T02:12:44.198Z,74.85
2016-02-27T02:13:44.184Z,75.04
2016-02-27T02:14:44.172Z,75.04
2016-02-27T02:15:44.175Z,74.85
2016-02-27T02:16:44.162Z,74.66
2016-02-27T02:17:44.165Z,75.51
2016-02-27T02:18:44.151Z,75.51
2016-02-27T02:19:44.138Z,75.13
2016-02-27T02:20:44.125Z,75.42
2016-02-27T02:21:44.128Z,75.98
2016-02-27T02:22:44.116Z,76.07
2016-02-27T02:23:44.118Z,75.76
2016-02-27T02:24:44.106Z,76.07
2016-02-27T02:25:44.092Z,75.51
2016-02-27T02:26:44.095Z,75.51
2016-02-27T02:27:44.082Z,75.89
2016-02-27T02:28:44.069Z,75.79
2016-02-27T02:29:44.072Z,75.89
2016-02-27T02:30:44.059Z,75.98
2016-02-27T02:31:44.045Z,75.79
2016-02-27T02:32:44.048Z,76.17
2016-02-27T02:33:44.036Z,76.07
2016-02-27T02:34:44.023Z,75.51
2016-02-27T02:35:44.025Z,75.42
2016-02-27T02:36:44.013Z,75.32
2016-02-27T02:37:44.015Z,75.42
2016-02-27T02:38:44.002Z,75.51
2016-02-27T02:39:44.004Z,75.13
2016-02-27T02:40:43.991Z,75.7
2016-02-27T02:41:43.980Z,75.32
2016-02-27T02:42:43.825Z,75.51
2016-02-27T02:43:43.969Z,75.98
2016-02-27T02:44:43.955Z,75.89
2016-02-27T02:45:43.958Z,76.07
2016-02-27T02:46:43.945Z,75.98
2016-02-27T02:47:43.948Z,75.6
2016-02-27T02:48:43.935Z,75.6
2016-02-27T02:49:43.938Z,76.04
2016-02-27T02:50:43.926Z,76.07
2016-02-27T02:51:43.912Z,75.95
2016-02-27T02:52:43.915Z,75.98
2016-02-27T02:53:43.887Z,75.95
2016-02-27T02:54:43.920Z,76.17
2016-02-27T02:55:43.876Z,76.42
2016-02-27T02:56:43.878Z,76.64
2016-02-27T02:57:43.897Z,76.23
2016-02-27T02:58:43.868Z,76.32
2016-02-27T02:59:43.870Z,76.51
2016-02-27T03:00:43.859Z,76.7
2016-02-27T03:01:43.830Z,76.89
2016-02-27T03:02:43.833Z,76.89
2016-02-27T03:03:43.819Z,76.61
2016-02-27T03:04:43.806Z,76.89
2016-02-27T03:05:43.809Z,76.61
2016-02-27T03:06:43.796Z,77.36
2016-02-27T03:07:43.814Z,76.89
2016-02-27T03:08:43.802Z,77.64
2016-02-27T03:09:43.789Z,77.55
2016-02-27T03:10:43.775Z,77.64
2016-02-27T03:11:43.763Z,77.45
2016-02-27T03:12:43.766Z,77.55
2016-02-27T03:13:43.737Z,77.17
2016-02-27T03:14:43.755Z,77.45
2016-02-27T03:15:43.742Z,77.17
2016-02-27T03:16:43.730Z,76.98
2016-02-27T03:17:43.732Z,77.26
2016-02-27T03:18:43.704Z,77.08
2016-02-27T03:19:43.706Z,76.98
2016-02-27T03:20:43.693Z,77.17
2016-02-27T03:21:43.696Z,77.64
2016-02-27T03:22:43.682Z,76.98
2016-02-27T03:23:43.685Z,76.79
2016-02-27T03:24:43.657Z,77.17
2016-02-27T03:25:43.660Z,76.98
2016-02-27T03:26:43.647Z,77.74
2016-02-27T03:27:43.634Z,77.45
2016-02-27T03:28:43.637Z,77.64
2016-02-27T03:29:43.639Z,77.74
2016-02-27T03:30:43.611Z,78.12
2016-02-27T03:31:43.629Z,78.12
2016-02-27T03:32:43.631Z,77.55
2016-02-27T03:33:43.619Z,78.12
2016-02-27T03:34:43.621Z,78.12
2016-02-27T03:35:43.578Z,77.74
2016-02-27T03:36:43.611Z,77.64
2016-02-27T03:37:43.583Z,77.64
2016-02-27T03:38:43.617Z,77.64
2016-02-27T03:39:43.557Z,77.36
2016-02-27T03:40:43.560Z,77.93
2016-02-27T03:41:43.562Z,78.31
2016-02-27T03:42:43.549Z,78.59
2016-02-27T03:43:43.521Z,78.59
2016-02-27T03:44:43.539Z,78.59
2016-02-27T03:45:43.511Z,78.68
2016-02-27T03:46:43.497Z,78.5
2016-02-27T03:47:43.500Z,78.59
2016-02-27T03:48:43.503Z,78.5
2016-02-27T03:49:43.488Z,78.59
2016-02-27T03:50:43.459Z,78.4
2016-02-27T03:51:43.461Z,78.68
2016-02-27T03:52:43.449Z,78.5
2016-02-27T03:53:43.451Z,78.87
2016-02-27T03:54:43.438Z,78.78
2016-02-27T03:55:43.441Z,79.06
2016-02-27T03:56:43.428Z,78.97
2016-02-27T03:57:43.431Z,79.25
2016-02-27T03:58:43.401Z,78.97
2016-02-27T03:59:43.389Z,78.59
2016-02-27T04:00:43.392Z,78.68
2016-02-27T04:01:43.395Z,78.87
2016-02-27T04:02:43.382Z,79.06
2016-02-27T04:03:43.369Z,79.35
2016-02-27T04:04:43.356Z,79.25
2016-02-27T04:05:43.374Z,79.25
2016-02-27T04:06:43.361Z,79.44
2016-02-27T04:07:43.332Z,79.06
2016-02-27T04:08:43.336Z,78.97
2016-02-27T04:09:43.323Z,79.25
2016-02-27T04:10:43.309Z,79.16
2016-02-27T04:11:43.312Z,79.16
2016-02-27T04:12:43.300Z,79.16
2016-02-27T04:13:43.286Z,79.16
2016-02-27T04:14:43.274Z,79.25
2016-02-27T04:15:43.276Z,79.06
2016-02-27T04:16:43.279Z,78.87
2016-02-27T04:17:43.281Z,78.87
2016-02-27T04:18:43.268Z,78.78
2016-02-27T04:19:43.241Z,79.16
2016-02-27T04:20:43.243Z,78.97
2016-02-27T04:21:43.230Z,79.06
2016-02-27T04:22:43.216Z,79.44
2016-02-27T04:23:43.235Z,79.63
2016-02-27T04:24:43.206Z,80
2016-02-27T04:25:43.210Z,80.1
2016-02-27T04:26:43.196Z,79.82
2016-02-27T04:27:43.199Z,79.82
2016-02-27T04:28:43.187Z,79.82
2016-02-27T04:29:43.173Z,80
2016-02-27T04:30:43.180Z,80.29
2016-02-27T04:31:43.154Z,80.76
2016-02-27T04:32:43.112Z,81.14
2016-02-27T04:33:43.086Z,81.61
2016-02-27T04:34:43.059Z,81.8
2016-02-27T04:35:43.057Z,81.71
2016-02-27T04:36:43.039Z,81.23
2016-02-27T04:37:43.021Z,81.8
2016-02-27T04:38:43.019Z,81.52
2016-02-27T04:39:43.001Z,81.42
2016-02-27T04:40:42.986Z,81.8
2016-02-27T04:41:42.987Z,80.85
2016-02-27T04:42:42.972Z,81.23
2016-02-27T04:43:42.974Z,81.42
2016-02-27T04:44:42.960Z,81.42
2016-02-27T04:45:42.946Z,81.04
2016-02-27T04:46:42.931Z,80.95
2016-02-27T04:47:42.933Z,81.04
2016-02-27T04:48:42.920Z,80.95
2016-02-27T04:49:42.922Z,80.85
2016-02-27T04:50:42.908Z,80.85
2016-02-27T04:51:42.896Z,80.85
2016-02-27T04:52:42.882Z,81.14
2016-02-27T04:53:42.885Z,80.66
2016-02-27T04:54:42.871Z,80.95
2016-02-27T04:55:42.873Z,81.23
2016-02-27T04:56:42.876Z,81.71
2016-02-27T04:57:42.848Z,81.61
2016-02-27T04:58:42.834Z,81.52
2016-02-27T04:59:42.837Z,81.71
2016-02-27T05:00:42.839Z,81.33
2016-02-27T05:01:42.827Z,81.71
2016-02-27T05:02:42.800Z,81.52
2016-02-27T05:03:42.802Z,81.61
2016-02-27T05:04:42.805Z,81.33
2016-02-27T05:05:42.791Z,81.61
2016-02-27T05:06:42.794Z,81.42
2016-02-27T05:07:42.765Z,81.9
2016-02-27T05:08:42.752Z,81.99
2016-02-27T05:09:42.755Z,81.99
2016-02-27T05:10:42.742Z,81.67
2016-02-27T05:11:42.745Z,82.32
2016-02-27T05:12:42.732Z,82.14
2016-02-27T05:13:42.719Z,81.85
2016-02-27T05:14:42.706Z,82.04
2016-02-27T05:15:42.709Z,82.42
2016-02-27T05:16:42.696Z,82.7
2016-02-27T05:17:42.682Z,82.7
2016-02-27T05:18:42.671Z,82.7
2016-02-27T05:19:42.673Z,82.61
2016-02-27T05:20:42.660Z,82.99
2016-02-27T05:21:42.678Z,82.99
2016-02-27T05:22:42.649Z,83.17
2016-02-27T05:23:42.636Z,82.42
2016-02-27T05:24:42.639Z,82.42
2016-02-27T05:25:42.626Z,83.17
2016-02-27T05:26:42.614Z,83.27
2016-02-27T05:27:42.601Z,83.27
2016-02-27T05:28:42.603Z,82.99
2016-02-27T05:29:42.590Z,83.27
2016-02-27T05:30:42.578Z,82.8
2016-02-27T05:31:42.580Z,83.08
2016-02-27T05:32:42.567Z,83.27
2016-02-27T05:33:42.553Z,83.84
2016-02-27T05:34:42.542Z,83.46
2016-02-27T05:35:42.544Z,83.74
2016-02-27T05:36:42.531Z,83.55
2016-02-27T05:37:42.533Z,83.84
2016-02-27T05:38:42.521Z,83.84
2016-02-27T05:39:42.523Z,83.74
2016-02-27T05:40:42.510Z,83.27
2016-02-27T05:41:42.497Z,83.74
2016-02-27T05:42:42.485Z,83.84
2016-02-27T05:43:42.488Z,83.84
2016-02-27T05:44:42.474Z,83.65
2016-02-27T05:45:42.461Z,83.84
2016-02-27T05:46:42.448Z,83.65
2016-02-27T05:47:42.451Z,83.65
2016-02-27T05:48:42.438Z,83.84
2016-02-27T05:49:42.440Z,83.65
2016-02-27T05:50:42.429Z,83.74
2016-02-27T05:51:42.446Z,83.65
2016-02-27T05:52:42.402Z,83.74
2016-02-27T05:53:42.389Z,83.65
2016-02-27T05:54:42.392Z,83.36
2016-02-27T05:55:42.395Z,83.65
2016-02-27T05:56:42.365Z,83.65
2016-02-27T05:57:42.353Z,83.65
2016-02-27T05:58:42.356Z,83.55
2016-02-27T05:59:42.359Z,83.65
2016-02-27T06:00:42.423Z,84.03
2016-02-27T06:01:42.379Z,83.46
2016-02-27T06:02:42.336Z,83.36
2016-02-27T06:03:42.322Z,83.65
2016-02-27T06:04:42.325Z,83.84
2016-02-27T06:05:42.328Z,84.12
2016-02-27T06:06:42.299Z,83.74
2016-02-27T06:07:42.286Z,83.74
2016-02-27T06:08:42.272Z,83.36
2016-02-27T06:09:42.276Z,83.84
2016-02-27T06:10:42.263Z,83.65
2016-02-27T06:11:42.250Z,83.46
2016-02-27T06:12:42.237Z,83.46
2016-02-27T06:13:42.224Z,83.65
2016-02-27T06:14:42.227Z,83.46
2016-02-27T06:15:42.213Z,83.74
2016-02-27T06:16:42.216Z,83.46
2016-02-27T06:17:42.219Z,83.84
2016-02-27T06:18:42.191Z,84.5
2016-02-27T06:19:42.177Z,84.88
2016-02-27T06:20:42.196Z,84.97
2016-02-27T06:21:42.183Z,84.59
2016-02-27T06:22:45.170Z,84.78
2016-02-27T06:23:42.173Z,84.69
2016-02-27T06:24:42.144Z,84.59
2016-02-27T06:25:42.132Z,84.78
2016-02-27T06:26:42.134Z,84.88
2016-02-27T06:27:42.106Z,84.31
2016-02-27T06:28:42.109Z,84.12
2016-02-27T06:29:42.111Z,84.12
2016-02-27T06:30:42.098Z,83.93
2016-02-27T06:31:42.084Z,83.93
2016-02-27T06:32:42.072Z,83.88
2016-02-27T06:33:42.075Z,83.46
2016-02-27T06:34:42.062Z,83.4
2016-02-27T06:35:42.049Z,83.69
2016-02-27T06:36:42.036Z,83.5
2016-02-27T06:37:42.039Z,83.36
2016-02-27T06:38:42.025Z,83.88
2016-02-27T06:39:42.013Z,83.78
2016-02-27T06:40:42.030Z,83.84
2016-02-27T06:41:42.003Z,83.74
2016-02-27T06:42:42.005Z,83.74
2016-02-27T06:43:41.991Z,83.74
2016-02-27T06:44:41.979Z,83.65
2016-02-27T06:45:41.966Z,83.55
2016-02-27T06:46:41.954Z,83.84
2016-02-27T06:47:41.956Z,83.5
2016-02-27T06:48:41.943Z,83.5
2016-02-27T06:49:41.946Z,83.78
2016-02-27T06:50:41.933Z,83.5
2016-02-27T06:51:41.921Z,83.69
2016-02-27T06:52:41.923Z,83.31
2016-02-27T06:53:41.941Z,83.12
2016-02-27T06:54:41.913Z,83.12
2016-02-27T06:55:41.899Z,83.22
2016-02-27T06:56:41.886Z,83.31
2016-02-27T06:57:41.889Z,82.93
2016-02-27T06:58:41.876Z,82.93
2016-02-27T06:59:41.863Z,83.22
2016-02-27T07:00:41.867Z,83.12
2016-02-27T07:01:41.837Z,82.56
2016-02-27T07:02:41.840Z,82.84
2016-02-27T07:03:41.828Z,82.84
2016-02-27T07:04:41.830Z,82.75
2016-02-27T07:05:41.817Z,82.75
2016-02-27T07:06:41.819Z,82.56
2016-02-27T07:07:41.791Z,82.65
2016-02-27T07:08:41.795Z,82.84
2016-02-27T07:09:41.781Z,82.93
2016-02-27T07:10:41.769Z,82.46
2016-02-27T07:11:41.755Z,83.03
2016-02-27T07:12:41.758Z,83.03
2016-02-27T07:13:41.776Z,82.46
2016-02-27T07:14:41.747Z,82.46
2016-02-27T07:15:41.735Z,82.75
2016-02-27T07:16:41.722Z,82.28
2016-02-27T07:17:41.725Z,81.99
2016-02-27T07:18:41.711Z,81.99
2016-02-27T07:19:41.714Z,81.8
2016-02-27T07:20:41.701Z,81.71
2016-02-27T07:21:41.688Z,81.71
2016-02-27T07:22:41.518Z,81.27
2016-02-27T07:23:41.709Z,81.27
2016-02-27T07:24:41.666Z,80.99
2016-02-27T07:25:41.652Z,80.33
2016-02-27T07:26:41.655Z,80.14
2016-02-27T07:27:41.657Z,79.76
2016-02-27T07:28:41.645Z,79.76
2016-02-27T07:29:41.631Z,79.86
2016-02-27T07:30:41.634Z,79.1
2016-02-27T07:31:41.621Z,79
2016-02-27T07:32:41.624Z,78.44
2016-02-27T07:33:41.596Z,78.34
2016-02-27T07:34:41.598Z,78.63
2016-02-27T07:35:41.601Z,77.02
2016-02-27T07:36:41.603Z,76.02
2016-02-27T07:37:41.575Z,73.47
2016-02-27T07:38:41.577Z,71.99
2016-02-27T07:39:41.564Z,69.72
2016-02-27T07:40:41.568Z,67.49
2016-02-27T07:41:41.555Z,65.78
2016-02-27T07:42:41.558Z,63.45
2016-02-27T07:43:41.560Z,62.15
2016-02-27T07:44:41.563Z,60.44
2016-02-27T07:45:41.549Z,59.12
2016-02-27T07:46:41.552Z,57.92
2016-02-27T07:47:41.539Z,57.16
2016-02-27T07:48:41.542Z,56.3
2016-02-27T07:49:41.545Z,55.64
2016-02-27T07:50:41.532Z,54.82
2016-02-27T07:51:41.535Z,53.87
2016-02-27T07:52:41.538Z,53.11
2016-02-27T07:53:41.540Z,52
2016-02-27T07:54:41.527Z,50.38
2016-02-27T07:55:41.529Z,49.18
2016-02-27T07:56:41.532Z,48.7
2016-02-27T07:57:41.535Z,47.37
2016-02-27T07:58:41.381Z,48.03
2016-02-27T07:59:41.525Z,48.7
2016-02-27T08:00:41.528Z,48.7
2016-02-27T08:01:41.531Z,48.41
2016-02-27T08:02:41.533Z,48.41
2016-02-27T08:03:41.536Z,48.8
2016-02-27T08:04:41.523Z,49.15
2016-02-27T08:05:41.557Z,48.77
2016-02-27T08:06:41.622Z,48.32
2016-02-27T08:07:41.531Z,47.28
2016-02-27T08:08:41.534Z,47.56
2016-02-27T08:09:41.536Z,47.56
2016-02-27T08:10:41.539Z,47.75
2016-02-27T08:11:41.541Z,47.56
2016-02-27T08:12:41.544Z,47.85
2016-02-27T08:13:41.563Z,48.41
2016-02-27T08:14:41.549Z,49.37
2016-02-27T08:15:41.552Z,48.68
2016-02-27T08:16:41.602Z,48.77
2016-02-27T08:17:41.542Z,49.15
2016-02-27T08:18:41.560Z,48.68
2016-02-27T08:19:41.547Z,47.18
2016-02-27T08:20:41.550Z,46.51
2016-02-27T08:21:41.553Z,46.14
2016-02-27T08:22:41.556Z,46.33
2016-02-27T08:23:41.558Z,46.14
2016-02-27T08:24:41.545Z,46.23
2016-02-27T08:25:41.549Z,46.8
2016-02-27T08:26:41.551Z,47.28
2016-02-27T08:27:41.569Z,47.47
2016-02-27T08:28:41.571Z,48.11
2016-02-27T08:29:41.574Z,48.68
2016-02-27T08:30:41.576Z,48.49
2016-02-27T08:31:41.565Z,48.96
2016-02-27T08:32:41.567Z,49.69
2016-02-27T08:33:41.570Z,50.45
2016-02-27T08:34:41.572Z,51.78
2016-02-27T08:35:41.575Z,53.56
2016-02-27T08:36:41.578Z,55.17
2016-02-27T08:37:41.565Z,57.13
2016-02-27T08:38:41.584Z,58.45
2016-02-27T08:39:41.586Z,59.56
2016-02-27T08:40:41.589Z,60.13
2016-02-27T08:41:41.560Z,60.51
2016-02-27T08:42:41.609Z,61.27
2016-02-27T08:43:41.565Z,61.18
2016-02-27T08:44:41.568Z,61.93
2016-02-27T08:45:41.570Z,61.71
2016-02-27T08:46:41.558Z,61.9
2016-02-27T08:47:41.560Z,61.99
2016-02-27T08:48:41.563Z,61.61
2016-02-27T08:49:41.549Z,62.56
2016-02-27T08:50:41.553Z,62.18
2016-02-27T08:51:41.555Z,62.37
2016-02-27T08:52:41.621Z,62.66
2016-02-27T08:53:41.639Z,63.04
2016-02-27T08:54:41.563Z,63.32
2016-02-27T08:55:41.551Z,64.93
2016-02-27T08:56:41.538Z,65.02
2016-02-27T08:57:41.540Z,64.74
2016-02-27T08:58:41.543Z,65.12
2016-02-27T08:59:41.529Z,64.93
2016-02-27T09:00:41.532Z,64.93
2016-02-27T09:01:41.535Z,65.31
2016-02-27T09:02:41.523Z,65.69
2016-02-27T09:03:41.526Z,65.31
2016-02-27T09:04:41.512Z,65.4
2016-02-27T09:05:41.531Z,65.12
2016-02-27T09:06:41.501Z,64.93
2016-02-27T09:07:41.504Z,64.93
2016-02-27T09:08:41.507Z,64.74
2016-02-27T09:09:41.494Z,64.26
2016-02-27T09:10:41.481Z,64.26
2016-02-27T09:11:41.515Z,64.26
2016-02-27T09:12:41.487Z,63.7
2016-02-27T09:13:41.475Z,63.89
2016-02-27T09:14:41.492Z,63.7
2016-02-27T09:15:41.323Z,63.13
2016-02-27T09:16:41.467Z,63.32
2016-02-27T09:17:41.453Z,62.85
2016-02-27T09:18:41.456Z,62.56
2016-02-27T09:19:41.458Z,62.28
2016-02-27T09:20:41.461Z,62.28
2016-02-27T09:21:41.449Z,62.09
2016-02-27T09:22:41.451Z,62.18
2016-02-27T09:23:41.438Z,62.37
2016-02-27T09:24:41.441Z,61.61
2016-02-27T09:25:41.427Z,61.65
2016-02-27T09:26:41.431Z,61.61
2016-02-27T09:27:41.433Z,61.61
2016-02-27T09:28:41.420Z,61.52
2016-02-27T09:29:41.424Z,61.24
2016-02-27T09:30:41.426Z,60.61
2016-02-27T09:31:41.429Z,60.61
2016-02-27T09:32:41.415Z,60.32
2016-02-27T09:33:41.403Z,60.13
2016-02-27T09:34:41.405Z,60.8
2016-02-27T09:35:41.408Z,60.61
2016-02-27T09:36:41.395Z,61.65
2016-02-27T09:37:41.398Z,61.46
2016-02-27T09:38:41.385Z,61.18
2016-02-27T09:39:41.403Z,60.61
2016-02-27T09:40:41.390Z,60.51
2016-02-27T09:41:41.378Z,60.51
2016-02-27T09:42:41.364Z,60.13
2016-02-27T09:43:41.367Z,59.94
2016-02-27T09:44:41.354Z,59.38
2016-02-27T09:45:41.357Z,59.41
2016-02-27T09:46:41.359Z,58.93
2016-02-27T09:47:41.347Z,58.26
2016-02-27T09:48:41.380Z,57.98
2016-02-27T09:49:41.367Z,57.6
2016-02-27T09:50:41.339Z,57.98
2016-02-27T09:51:41.341Z,57.89
2016-02-27T09:52:41.344Z,57.89
2016-02-27T09:53:41.346Z,57.48
2016-02-27T09:54:41.335Z,58.33
2016-02-27T09:55:41.322Z,57.6
2016-02-27T09:56:41.324Z,57.89
2016-02-27T09:57:41.327Z,57.32
2016-02-27T09:58:41.330Z,57.42
2016-02-27T09:59:41.316Z,57.32
2016-02-27T10:00:41.319Z,56.56
2016-02-27T10:01:41.306Z,56.75
2016-02-27T10:02:41.324Z,56.66
2016-02-27T10:03:41.312Z,57.32
2016-02-27T10:04:41.298Z,57.32
2016-02-27T10:05:41.365Z,57.23
2016-02-27T10:06:41.288Z,57.32
2016-02-27T10:07:41.290Z,57.04
2016-02-27T10:08:41.294Z,57.32
2016-02-27T10:09:41.296Z,56.85
2016-02-27T10:10:41.284Z,56.21
2016-02-27T10:11:41.286Z,55.07
2016-02-27T10:12:41.273Z,55.07
2016-02-27T10:13:41.276Z,55.07
2016-02-27T10:14:41.278Z,55.17
2016-02-27T10:15:41.266Z,54.69
2016-02-27T10:16:41.269Z,54.88
2016-02-27T10:17:41.272Z,54.32
2016-02-27T10:18:41.258Z,54.69
2016-02-27T10:19:41.261Z,54.69
2016-02-27T10:20:41.248Z,54.79
2016-02-27T10:21:41.266Z,54.69
2016-02-27T10:22:41.269Z,54.95
2016-02-27T10:23:41.240Z,55.52
2016-02-27T10:24:41.243Z,55.8
2016-02-27T10:25:41.246Z,56.18
2016-02-27T10:26:41.249Z,56.56
2016-02-27T10:27:41.251Z,57.13
2016-02-27T10:28:41.238Z,57.98
2016-02-27T10:29:41.241Z,57.32
2016-02-27T10:30:41.227Z,56.85
2016-02-27T10:31:41.215Z,56.3
2016-02-27T10:32:41.218Z,55.36
2016-02-27T10:33:41.220Z,55.17
2016-02-27T10:34:41.223Z,55.07
2016-02-27T10:35:41.210Z,54.6
2016-02-27T10:36:41.212Z,54.6
2016-02-27T10:37:41.215Z,54.5
2016-02-27T10:38:41.203Z,54.22
2016-02-27T10:39:41.205Z,54.79
2016-02-27T10:40:41.208Z,55.55
2016-02-27T10:41:41.211Z,54.98
2016-02-27T10:42:41.198Z,56.02
2016-02-27T10:43:41.200Z,55.83
2016-02-27T10:44:41.187Z,55.55
2016-02-27T10:45:41.190Z,55.17
2016-02-27T10:46:41.192Z,55.93
2016-02-27T10:47:41.180Z,55.93
2016-02-27T10:48:41.183Z,55.36
2016-02-27T10:49:41.186Z,55.74
2016-02-27T10:50:41.172Z,55.83
2016-02-27T10:51:41.191Z,56.59
2016-02-27T10:52:41.177Z,56.3
2016-02-27T10:53:41.180Z,55.45
2016-02-27T10:54:41.183Z,54.88
2016-02-27T10:55:41.170Z,54.69
2016-02-27T10:56:41.189Z,54.6
2016-02-27T10:57:41.175Z,55.07
2016-02-27T10:58:41.178Z,55.26
2016-02-27T10:59:41.150Z,55.17
2016-02-27T11:00:41.152Z,55.36
2016-02-27T11:01:41.155Z,55.07
2016-02-27T11:02:41.157Z,55.36
2016-02-27T11:03:41.160Z,56.12
2016-02-27T11:04:41.148Z,54.98
2016-02-27T11:05:41.181Z,54.79
2016-02-27T11:06:41.137Z,54.53
2016-02-27T11:07:41.156Z,54.25
2016-02-27T11:08:41.190Z,53.49
2016-02-27T11:09:41.145Z,53.11
2016-02-27T11:10:41.148Z,52.83
2016-02-27T11:11:41.134Z,53.02
2016-02-27T11:12:41.153Z,54.72
2016-02-27T11:13:41.125Z,55.38
2016-02-27T11:14:41.128Z,53.87
2016-02-27T11:15:41.130Z,53.3
2016-02-27T11:16:41.133Z,52.45
2016-02-27T11:17:41.136Z,52.92
2016-02-27T11:18:41.138Z,52.45
2016-02-27T11:19:41.125Z,52.54
2016-02-27T11:20:41.128Z,51.78
2016-02-27T11:21:41.115Z,51.72
2016-02-27T11:22:41.118Z,52.09
2016-02-27T11:23:41.105Z,52.45
2016-02-27T11:24:41.139Z,52.83
2016-02-27T11:25:41.111Z,52.64
2016-02-27T11:26:41.097Z,51.97
2016-02-27T11:27:41.116Z,51.97
2016-02-27T11:28:41.102Z,52.45
2016-02-27T11:29:41.106Z,52.54
2016-02-27T11:30:41.108Z,52.54
2016-02-27T11:31:41.096Z,52.35
2016-02-27T11:32:41.114Z,52.45
2016-02-27T11:33:41.100Z,52.73
2016-02-27T11:34:41.103Z,53.02
2016-02-27T11:35:41.090Z,53.2
2016-02-27T11:36:41.077Z,53.11
2016-02-27T11:37:41.112Z,53.2
2016-02-27T11:38:41.083Z,53.49
2016-02-27T11:39:41.085Z,53.3
2016-02-27T11:40:41.088Z,54.82
2016-02-27T11:41:41.090Z,55
2016-02-27T11:42:41.093Z,54.25
2016-02-27T11:43:41.096Z,53.39
2016-02-27T11:44:41.083Z,53.3
2016-02-27T11:45:41.087Z,53.58
2016-02-27T11:46:41.073Z,52.54
2016-02-27T11:47:41.076Z,52.83
2016-02-27T11:48:41.078Z,52.92
2016-02-27T11:49:41.065Z,52.54
2016-02-27T11:50:41.067Z,52.83
2016-02-27T11:51:41.070Z,52.56
2016-02-27T11:52:41.058Z,52.37
2016-02-27T11:53:41.061Z,52.37
2016-02-27T11:54:41.079Z,53.04
2016-02-27T11:55:41.066Z,54.27
2016-02-27T11:56:41.084Z,53.61
2016-02-27T11:57:41.055Z,52.85
2016-02-27T11:58:41.058Z,52.85
2016-02-27T11:59:41.046Z,52.19
2016-02-27T12:00:41.063Z,51.24
2016-02-27T12:01:41.067Z,50.76
2016-02-27T12:02:41.054Z,50.57
2016-02-27T12:03:41.057Z,50.67
2016-02-27T12:04:41.043Z,50.57
2016-02-27T12:05:41.046Z,50.86
2016-02-27T12:06:41.065Z,51.43
2016-02-27T12:07:41.067Z,50.67
2016-02-27T12:08:41.070Z,50.38
2016-02-27T12:09:41.041Z,50.67
2016-02-27T12:10:41.029Z,50.67
2016-02-27T12:11:41.031Z,50.67
2016-02-27T12:12:40.877Z,50.67
2016-02-27T12:13:41.036Z,50.76
2016-02-27T12:14:41.039Z,50.67
2016-02-27T12:15:41.026Z,50.89
2016-02-27T12:16:41.028Z,50.31
2016-02-27T12:17:41.032Z,50.03
2016-02-27T12:18:41.050Z,48.99
2016-02-27T12:19:41.037Z,49.18
2016-02-27T12:20:41.023Z,48.8
2016-02-27T12:21:41.026Z,48.8
2016-02-27T12:22:41.014Z,48.89
2016-02-27T12:23:41.017Z,48.99
2016-02-27T12:24:41.019Z,48.89
2016-02-27T12:25:41.037Z,48.32
2016-02-27T12:26:41.025Z,48.61
2016-02-27T12:27:41.058Z,48.61
2016-02-27T12:28:41.327Z,48.13
2016-02-27T12:29:41.048Z,47.94
2016-02-27T12:30:41.035Z,48.03
2016-02-27T12:31:41.038Z,48.03
2016-02-27T12:32:41.010Z,47.94
2016-02-27T12:33:41.013Z,47.75
2016-02-27T12:34:41.030Z,48.22
2016-02-27T12:35:41.049Z,48.32
2016-02-27T12:36:41.021Z,48.13
2016-02-27T12:37:41.023Z,48.51
2016-02-27T12:38:41.010Z,48.7
2016-02-27T12:39:41.013Z,48.32
2016-02-27T12:40:41.031Z,49.18
2016-02-27T12:41:41.018Z,48.89
2016-02-27T12:42:41.021Z,48.13
2016-02-27T12:43:41.023Z,48.13
2016-02-27T12:44:41.010Z,50.03
2016-02-27T12:45:40.998Z,50.6
2016-02-27T12:46:41.031Z,49.93
2016-02-27T12:47:41.018Z,49.84
2016-02-27T12:48:41.006Z,48.35
2016-02-27T12:49:41.211Z,49.49
2016-02-27T12:50:40.995Z,50.43
2016-02-27T12:51:41.029Z,48.91
2016-02-27T12:52:41.001Z,48.25
2016-02-27T12:53:41.003Z,47.49
2016-02-27T12:54:40.990Z,47.39
2016-02-27T12:55:41.008Z,46.92